This is the latest recevied weather packets stored in our database for station/object PU2ONU-13. If no packets are shown the sender has not sent any weather packets the latest 10 day(s).
| Time | Temp. | Humidity | Pressure | Rain* | Wind** | Luminosity | Snow |
|---|---|---|---|---|---|---|---|
| 1778008815 | 32.22° C | 30% | 1019 hPa | - | - | - | - |
| 1778006412 | 32.22° C | 32% | 1018 hPa | - | - | - | - |
| 1778002813 | 30.56° C | 35% | 1019 hPa | - | - | - | - |
| 1778001613 | 30.56° C | 34% | 1020 hPa | - | - | - | - |
| 1777999213 | 30° C | 36% | 1019 hPa | - | - | - | - |
| 1777990813 | 28.33° C | 43% | 1023 hPa | - | - | - | - |
| 1777988413 | 27.78° C | 45% | 1022 hPa | - | - | - | - |
| 1777987213 | 27.78° C | 47% | 1023 hPa | - | - | - | - |
| 1777984813 | 27.22° C | 49% | 1022 hPa | - | - | - | - |
| 1777983613 | 27.78° C | 46% | 1022 hPa | - | - | - | - |
| 1777981213 | 28.33° C | 45% | 1021 hPa | - | - | - | - |
| 1777980014 | 27.78° C | 44% | 1022 hPa | - | - | - | - |
| 1777976412 | 26.67° C | 46% | 1022 hPa | - | - | - | - |
| 1777975213 | 26.11° C | 46% | 1021 hPa | - | - | - | - |
| 1777974019 | 25.56° C | 48% | 1021 hPa | - | - | - | - |
| 1777972813 | 26.11° C | 46% | 1021 hPa | - | - | - | - |
| 1777971613 | 26.67° C | 45% | 1020 hPa | - | - | - | - |
| 1777970413 | 26.67° C | 45% | 1020 hPa | - | - | - | - |
| 1777969213 | 26.67° C | 45% | 1021 hPa | - | - | - | - |
| 1777966812 | 26.67° C | 47% | 1020 hPa | - | - | - | - |
| 1777965613 | 26.67° C | 46% | 1021 hPa | - | - | - | - |
| 1777964412 | 26.67° C | 47% | 1020 hPa | - | - | - | - |
| 1777963213 | 27.78° C | 45% | 1020 hPa | - | - | - | - |
| 1777962013 | 27.22° C | 45% | 1021 hPa | - | - | - | - |
| 1777960813 | 27.22° C | 46% | 1020 hPa | - | - | - | - |
* Rain since midnight (hover to see other rain measurements)
** Current wind speed in m/s (hover to see current wind gust speed)